Time;durP1;ratioP1;P1;durP2;ratioP2;P2;SDS_P1;SDS_P2;PMS_P1;PMS_P2;Temp;Humidity;BMP_temperature;BMP_pressure;BME280_temperature;BME280_humidity;BME280_pressure;Samples;Min_cycle;Max_cycle;Signal;HPM_P1;HPM_P2
2023/10/02 00:01:10;;;;;;;4.57;2.17;;;12.10;99.00;;;;;;5094890;28;20414;-59
2023/10/02 00:03:40;;;;;;;4.80;1.77;;;12.10;97.30;;;;;;5094847;28;20415;-59
2023/10/02 00:06:09;;;;;;;6.17;2.67;;;12.20;96.90;;;;;;5094391;28;20827;-59
2023/10/02 00:08:42;;;;;;;8.33;3.17;;;12.20;96.40;;;;;;5094490;28;20807;-59
2023/10/02 00:14:18;;;;;;;3.53;1.80;;;12.10;96.20;;;;;;5094705;28;20390;-59
2023/10/02 00:17:00;;;;;;;3.13;2.00;;;12.00;94.80;;;;;;5094188;28;20446;-59
2023/10/02 00:19:37;;;;;;;0.80;0.80;;;12.00;94.90;;;;;;5094628;28;20403;-59
2023/10/02 00:22:05;;;;;;;1.50;1.37;;;12.00;94.40;;;;;;5094265;28;20744;-59
2023/10/02 00:24:32;;;;;;;2.90;2.27;;;12.00;93.20;;;;;;5094461;28;20770;-59
2023/10/02 00:26:59;;;;;;;3.10;1.93;;;12.10;93.30;;;;;;5093746;28;20508;-59
2023/10/02 00:29:28;;;;;;;2.20;1.40;;;12.00;94.10;;;;;;5093830;28;20443;-59
2023/10/02 00:31:56;;;;;;;1.43;1.33;;;11.90;93.90;;;;;;5094032;28;20780;-59
2023/10/02 00:34:32;;;;;;;3.33;2.03;;;11.80;94.80;;;;;;5094376;28;20407;-59
2023/10/02 00:37:05;;;;;;;2.47;1.73;;;11.80;93.40;;;;;;5093639;28;20422;-59
2023/10/02 00:39:35;;;;;;;0.73;0.73;;;11.80;94.30;;;;;;5093967;28;20409;-59
2023/10/02 00:45:03;;;;;;;7.60;2.07;;;11.80;94.70;;;;;;5011568;28;20453;-59
2023/10/02 00:47:47;;;;;;;1.77;1.33;;;11.80;94.90;;;;;;5076521;28;20432;-59
2023/10/02 00:50:19;;;;;;;6.57;1.80;;;11.80;95.10;;;;;;5093939;28;20762;-57
2023/10/02 00:52:44;;;;;;;4.78;1.77;;;11.80;95.00;;;;;;5093652;28;20478;-59
2023/10/02 00:55:14;;;;;;;4.73;1.27;;;11.70;94.60;;;;;;5093633;28;20260;-59
2023/10/02 00:57:41;;;;;;;2.30;1.17;;;11.60;94.90;;;;;;5093379;28;20204;-58
2023/10/02 01:00:22;;;;;;;1.93;1.23;;;11.60;95.30;;;;;;5093645;28;20454;-59
2023/10/02 01:03:01;;;;;;;2.57;1.83;;;11.60;94.60;;;;;;5093426;28;20406;-58
2023/10/02 01:05:41;;;;;;;1.93;1.83;;;11.60;94.50;;;;;;5093281;28;20981;-59
2023/10/02 01:08:23;;;;;;;8.03;3.17;;;11.60;95.60;;;;;;5093633;28;20434;-59
2023/10/02 01:10:56;;;;;;;3.33;2.05;;;11.60;95.80;;;;;;5093325;28;20464;-59
2023/10/02 01:13:25;;;;;;;2.70;2.00;;;11.50;95.30;;;;;;5093600;28;20654;-59
2023/10/02 01:15:50;;;;;;;1.77;0.83;;;11.50;95.90;;;;;;5093260;28;20422;-59
2023/10/02 01:18:23;;;;;;;2.07;1.37;;;11.40;95.50;;;;;;5092853;28;20462;-58
2023/10/02 01:20:53;;;;;;;2.60;1.75;;;11.40;95.00;;;;;;5093412;28;20534;-59
2023/10/02 01:23:25;;;;;;;0.50;0.50;;;11.50;95.10;;;;;;5093183;28;20180;-59
2023/10/02 01:25:56;;;;;;;4.13;1.17;;;11.50;94.40;;;;;;5093051;28;20959;-59
2023/10/02 01:28:29;;;;;;;3.83;2.40;;;11.70;94.10;;;;;;5093086;28;20438;-59
2023/10/02 01:30:55;;;;;;;4.27;1.43;;;11.70;93.30;;;;;;5093100;28;20413;-59
2023/10/02 01:33:22;;;;;;;2.13;1.30;;;11.80;92.80;;;;;;5092321;28;20908;-59
2023/10/02 01:35:51;;;;;;;2.60;1.63;;;11.80;93.60;;;;;;5092853;28;20229;-58
2023/10/02 01:38:27;;;;;;;1.10;1.10;;;11.70;94.00;;;;;;5092930;28;20435;-59
2023/10/02 01:41:02;;;;;;;2.27;1.20;;;11.60;93.80;;;;;;5092932;28;20414;-59
2023/10/02 01:43:32;;;;;;;1.63;0.80;;;11.60;94.60;;;;;;5093188;28;20786;-59
2023/10/02 01:46:00;;;;;;;2.20;0.90;;;11.60;94.80;;;;;;5092218;28;20459;-59
2023/10/02 01:48:44;;;;;;;4.18;1.23;;;11.50;94.50;;;;;;5092601;28;20423;-59
2023/10/02 01:51:20;;;;;;;1.35;1.30;;;11.50;94.20;;;;;;5092860;28;20180;-59
2023/10/02 01:54:15;;;;;;;1.60;0.50;;;11.50;94.50;;;;;;5093060;28;20196;-59
2023/10/02 01:56:45;;;;;;;2.70;1.70;;;11.40;94.60;;;;;;5091997;28;20677;-59
2023/10/02 01:59:14;;;;;;;2.20;1.47;;;11.40;95.20;;;;;;5092169;28;20413;-59
2023/10/02 02:01:46;;;;;;;1.10;1.00;;;11.40;94.30;;;;;;5092338;28;20411;-59
2023/10/02 02:04:16;;;;;;;15.23;2.17;;;11.40;94.40;;;;;;5092206;28;20419;-59
2023/10/02 02:06:51;;;;;;;3.00;2.60;;;11.40;94.60;;;;;;5091673;28;20450;-59
2023/10/02 02:09:31;;;;;;;2.10;0.77;;;11.40;94.30;;;;;;5092526;28;20517;-59
2023/10/02 02:12:05;;;;;;;1.87;1.40;;;11.40;94.40;;;;;;5092966;28;20987;-59
2023/10/02 02:14:40;;;;;;;1.60;1.53;;;11.40;94.00;;;;;;5092022;28;20939;-59
2023/10/02 02:17:10;;;;;;;0.83;0.73;;;11.40;94.10;;;;;;5091652;28;20478;-59
2023/10/02 02:19:37;;;;;;;5.47;1.50;;;11.40;93.00;;;;;;5091944;28;20403;-59
2023/10/02 02:22:03;;;;;;;2.60;1.53;;;11.40;92.30;;;;;;5091859;28;20399;-59
2023/10/02 02:24:34;;;;;;;4.70;1.48;;;11.40;92.90;;;;;;5091810;28;20399;-59
2023/10/02 02:27:04;;;;;;;6.80;1.23;;;11.50;92.30;;;;;;5091514;28;20217;-59
2023/10/02 02:29:30;;;;;;;2.30;1.43;;;11.50;92.30;;;;;;5090653;28;20486;-59
2023/10/02 02:31:56;;;;;;;8.02;3.03;;;11.40;92.60;;;;;;5091313;28;20465;-59
2023/10/02 02:34:23;;;;;;;2.27;1.40;;;11.50;92.70;;;;;;5090413;28;20206;-59
2023/10/02 02:36:50;;;;;;;11.43;3.13;;;11.40;92.40;;;;;;5091233;28;20452;-59
2023/10/02 02:39:18;;;;;;;4.13;2.73;;;11.50;92.60;;;;;;5091640;28;20476;-59
2023/10/02 02:41:47;;;;;;;6.57;1.98;;;11.40;92.60;;;;;;5090153;28;20434;-59
2023/10/02 02:44:36;;;;;;;1.30;1.00;;;11.40;92.80;;;;;;5091508;28;20210;-59
2023/10/02 02:47:08;;;;;;;3.03;1.80;;;11.40;92.80;;;;;;5091128;28;20455;-59
2023/10/02 02:52:19;;;;;;;6.20;3.30;;;11.50;92.80;;;;;;5091799;28;20437;-59
2023/10/02 02:54:47;;;;;;;3.07;2.30;;;11.50;92.80;;;;;;5092103;28;20407;-59
2023/10/02 02:57:15;;;;;;;5.25;1.88;;;11.50;93.10;;;;;;5091235;28;20418;-59
2023/10/02 02:59:41;;;;;;;6.80;3.17;;;11.40;92.80;;;;;;5090860;28;20172;-58
2023/10/02 03:02:09;;;;;;;12.10;3.73;;;11.50;92.50;;;;;;5091187;28;20415;-59
2023/10/02 03:04:38;;;;;;;11.63;4.87;;;11.50;93.10;;;;;;5090778;28;20294;-59
2023/10/02 03:07:18;;;;;;;5.23;2.70;;;11.50;92.30;;;;;;5089297;28;20454;-59
2023/10/02 03:09:44;;;;;;;5.07;2.57;;;11.50;92.10;;;;;;5089390;28;20399;-59
2023/10/02 03:12:10;;;;;;;11.90;3.03;;;11.50;91.60;;;;;;5089443;28;20406;-59
2023/10/02 03:14:36;;;;;;;8.43;4.40;;;11.60;91.90;;;;;;5089215;28;20177;-59
2023/10/02 03:19:46;;;;;;;3.07;2.73;;;11.60;93.40;;;;;;5091414;28;20199;-59
2023/10/02 03:22:11;;;;;;;13.27;4.30;;;11.50;93.80;;;;;;5091405;28;20411;-58
2023/10/02 03:24:39;;;;;;;22.60;5.60;;;11.60;94.10;;;;;;5090991;28;20409;-59
2023/10/02 03:27:08;;;;;;;7.75;6.38;;;11.60;94.90;;;;;;5090464;28;20270;-59
2023/10/02 03:29:34;;;;;;;9.75;3.30;;;11.50;95.40;;;;;;5091183;28;20207;-59
2023/10/02 03:32:01;;;;;;;15.63;5.60;;;11.50;95.00;;;;;;5091315;28;20173;-59
2023/10/02 03:34:29;;;;;;;11.73;4.20;;;11.50;95.10;;;;;;5091117;28;20431;-59
2023/10/02 03:37:00;;;;;;;9.93;5.27;;;11.50;95.20;;;;;;5090734;28;20483;-59
2023/10/02 03:39:51;;;;;;;6.00;3.73;;;11.50;95.40;;;;;;5091224;28;20406;-59
2023/10/02 03:42:25;;;;;;;13.03;5.67;;;11.60;95.10;;;;;;5091134;28;20403;-59
2023/10/02 03:44:54;;;;;;;13.00;4.85;;;11.60;95.30;;;;;;5091093;28;20403;-59
2023/10/02 03:47:21;;;;;;;11.53;7.33;;;11.70;94.20;;;;;;5090667;28;20275;-59
2023/10/02 03:49:47;;;;;;;11.80;6.33;;;11.80;93.40;;;;;;5091133;28;20494;-59
2023/10/02 03:52:14;;;;;;;13.63;8.47;;;12.00;93.90;;;;;;5091288;28;20967;-59
2023/10/02 03:54:43;;;;;;;14.83;6.07;;;12.00;94.30;;;;;;5091176;28;20399;-60
2023/10/02 03:57:37;;;;;;;22.63;7.30;;;12.00;95.10;;;;;;5093620;28;20460;-60
2023/10/02 04:00:18;;;;;;;13.63;5.73;;;11.80;95.00;;;;;;5093757;28;20768;-58
2023/10/02 04:02:52;;;;;;;14.97;6.00;;;11.80;94.40;;;;;;5094473;28;20908;-59
2023/10/02 04:08:36;;;;;;;16.13;8.13;;;12.00;94.20;;;;;;5093544;28;20794;-62
2023/10/02 04:11:07;;;;;;;14.10;7.20;;;12.00;94.60;;;;;;5093120;28;20406;-58
2023/10/02 04:13:39;;;;;;;12.70;7.03;;;11.90;95.00;;;;;;5093324;28;20430;-58
2023/10/02 04:18:49;;;;;;;17.27;5.77;;;11.90;95.90;;;;;;5094276;28;20444;-59
2023/10/02 04:21:22;;;;;;;37.43;7.13;;;11.80;96.10;;;;;;5093504;28;20964;-59
2023/10/02 04:23:52;;;;;;;31.20;6.23;;;11.80;96.40;;;;;;5093711;28;20426;-59
2023/10/02 04:26:23;;;;;;;16.20;5.33;;;11.80;96.50;;;;;;5093551;28;21157;-59
2023/10/02 04:28:58;;;;;;;17.40;7.33;;;11.80;96.00;;;;;;5094071;28;20407;-59
2023/10/02 04:31:27;;;;;;;15.67;6.70;;;12.00;96.10;;;;;;5093986;28;20487;-59
2023/10/02 04:36:40;;;;;;;19.43;6.87;;;12.10;96.30;;;;;;5093626;28;20281;-59
2023/10/02 04:39:13;;;;;;;19.60;6.20;;;12.10;96.90;;;;;;5093918;28;20467;-60
2023/10/02 04:42:09;;;;;;;10.03;2.97;;;12.10;97.70;;;;;;5093817;28;20493;-57
2023/10/02 04:44:28;;;;;;;7.30;5.30;;;12.10;98.20;;;;;;5093501;28;20925;-58
2023/10/02 04:46:53;;;;;;;9.17;6.53;;;12.10;98.70;;;;;;5093367;28;20481;-59
2023/10/02 04:49:19;;;;;;;8.57;4.27;;;12.10;99.00;;;;;;5093751;28;20410;-59
2023/10/02 04:51:46;;;;;;;12.10;7.50;;;12.10;99.40;;;;;;5094023;28;20176;-59
2023/10/02 04:54:15;;;;;;;18.67;6.00;;;12.10;99.90;;;;;;5093581;28;20180;-59
2023/10/02 04:56:46;;;;;;;11.40;5.23;;;12.10;99.90;;;;;;5092741;28;20442;-59
2023/10/02 04:59:12;;;;;;;15.10;6.67;;;12.10;99.90;;;;;;5093472;28;20413;-61
2023/10/02 05:01:42;;;;;;;13.57;5.07;;;12.10;99.90;;;;;;5092407;28;20399;-59
2023/10/02 05:04:08;;;;;;;12.70;6.97;;;12.00;99.90;;;;;;5093414;28;20809;-59
2023/10/02 05:06:44;;;;;;;12.87;7.77;;;12.00;99.90;;;;;;5092124;28;20460;-59
2023/10/02 05:11:58;;;;;;;12.03;5.77;;;12.10;99.90;;;;;;5093427;28;20433;-59
2023/10/02 05:14:34;;;;;;;16.70;8.00;;;12.10;99.90;;;;;;5093148;28;20407;-59
2023/10/02 05:17:17;;;;;;;9.83;6.27;;;12.10;99.90;;;;;;5092111;28;20450;-59
2023/10/02 05:20:04;;;;;;;10.73;6.10;;;12.20;99.90;;;;;;5092590;28;20494;-59
2023/10/02 05:22:32;;;;;;;21.30;7.03;;;12.20;99.90;;;;;;5092828;28;20414;-59
2023/10/02 05:24:59;;;;;;;20.37;5.90;;;12.20;99.90;;;;;;5092817;28;20403;-59
2023/10/02 05:27:33;;;;;;;11.60;5.77;;;12.20;99.90;;;;;;5091905;28;20421;-61
2023/10/02 05:30:01;;;;;;;25.80;7.17;;;12.20;99.90;;;;;;5092725;28;20410;-62
2023/10/02 05:32:35;;;;;;;7.97;4.97;;;12.20;99.90;;;;;;5092472;28;20447;-59
2023/10/02 05:37:31;;;;;;;10.90;5.30;;;12.20;99.90;;;;;;5091833;28;20935;-59
2023/10/02 05:40:32;;;;;;;22.67;8.80;;;12.20;99.90;;;;;;5092458;28;20456;-60
2023/10/02 05:45:39;;;;;;;10.53;7.70;;;12.30;99.90;;;;;;5092097;28;20473;-59
2023/10/02 05:48:14;;;;;;;15.70;5.67;;;12.20;99.90;;;;;;5092299;28;20850;-59
2023/10/02 05:50:52;;;;;;;16.13;6.93;;;12.20;99.90;;;;;;5091805;28;20422;-58
2023/10/02 05:53:25;;;;;;;17.53;6.30;;;12.30;99.90;;;;;;5092185;28;20830;-59
2023/10/02 05:55:57;;;;;;;11.70;8.00;;;12.30;99.90;;;;;;5091765;28;20828;-59
2023/10/02 05:58:32;;;;;;;13.00;6.70;;;12.40;99.90;;;;;;5091654;28;20457;-60
2023/10/02 06:01:02;;;;;;;19.27;7.93;;;12.40;99.90;;;;;;5091606;28;20406;-60
2023/10/02 06:03:37;;;;;;;29.10;8.83;;;12.40;99.90;;;;;;5092018;28;20402;-60
2023/10/02 06:06:21;;;;;;;27.73;9.40;;;12.50;99.90;;;;;;5091485;28;21109;-59
2023/10/02 06:08:49;;;;;;;16.63;7.03;;;12.60;99.90;;;;;;5091455;28;20412;-59
2023/10/02 06:11:25;;;;;;;22.33;6.40;;;12.70;99.90;;;;;;5090489;28;20418;-59
2023/10/02 06:13:55;;;;;;;22.03;5.50;;;12.80;99.90;;;;;;5092798;28;20721;-60
2023/10/02 06:16:26;;;;;;;17.63;8.43;;;12.80;99.90;;;;;;5091642;28;20498;-60
2023/10/02 06:19:01;;;;;;;16.33;6.27;;;12.70;99.90;;;;;;5091610;28;20448;-59
2023/10/02 06:21:46;;;;;;;19.03;9.67;;;12.70;99.90;;;;;;5091682;28;20421;-59
2023/10/02 06:24:14;;;;;;;16.53;7.40;;;12.80;99.90;;;;;;5091785;28;20413;-59
2023/10/02 06:26:57;;;;;;;20.77;8.67;;;12.90;99.90;;;;;;5091075;28;20589;-60
2023/10/02 06:29:29;;;;;;;16.53;7.00;;;13.00;99.90;;;;;;5091843;28;20417;-60
2023/10/02 06:32:09;;;;;;;13.93;7.87;;;13.10;99.90;;;;;;5091651;28;20456;-60
2023/10/02 06:34:37;;;;;;;12.63;6.77;;;13.20;99.90;;;;;;5091748;28;20750;-59
2023/10/02 06:37:35;;;;;;;18.97;7.50;;;13.30;99.90;;;;;;5091290;28;20430;-59
2023/10/02 06:40:06;;;;;;;11.27;7.27;;;13.30;99.90;;;;;;5091798;28;20407;-59
2023/10/02 06:42:32;;;;;;;17.70;7.20;;;13.40;99.90;;;;;;5091779;28;20644;-59
2023/10/02 06:45:01;;;;;;;19.73;7.50;;;13.60;99.90;;;;;;5091537;28;20486;-59
2023/10/02 06:47:29;;;;;;;18.83;9.87;;;13.70;99.90;;;;;;5072986;28;20431;-59
2023/10/02 06:50:38;;;;;;;27.90;10.30;;;14.00;99.90;;;;;;5091780;28;20820;-60
2023/10/02 06:52:45;;;;;;;15.33;8.97;;;14.60;99.90;;;;;;5080432;28;20426;-59
2023/10/02 06:55:11;;;;;;;19.97;8.10;;;15.60;99.90;;;;;;5091374;28;20425;-59
2023/10/02 06:57:49;;;;;;;22.93;9.70;;;16.60;99.70;;;;;;5091052;28;20682;-60
2023/10/02 07:00:22;;;;;;;27.13;11.13;;;17.40;97.50;;;;;;5091423;28;20407;-60
2023/10/02 07:02:56;;;;;;;29.57;12.27;;;18.70;95.00;;;;;;5091416;28;20409;-60
2023/10/02 07:05:32;;;;;;;31.90;11.60;;;20.10;92.40;;;;;;5091272;28;20456;-60
2023/10/02 07:08:17;;;;;;;36.50;14.60;;;21.10;88.00;;;;;;5090926;28;20454;-60
2023/10/02 07:10:43;;;;;;;35.47;15.00;;;22.40;84.30;;;;;;5091433;28;20409;-60
2023/10/02 07:13:19;;;;;;;39.77;17.50;;;23.90;79.20;;;;;;5091205;28;20888;-61
2023/10/02 07:15:53;;;;;;;48.33;23.80;;;25.10;73.20;;;;;;5091181;28;21049;-61
2023/10/02 07:18:19;;;;;;;46.83;18.23;;;26.00;63.20;;;;;;5091006;28;20482;-61
2023/10/02 07:20:49;;;;;;;38.77;18.30;;;26.60;61.30;;;;;;5091098;28;20785;-60
2023/10/02 07:23:19;;;;;;;44.27;19.67;;;27.00;57.20;;;;;;5091319;28;20776;-61
2023/10/02 07:25:50;;;;;;;41.03;20.87;;;27.30;54.70;;;;;;5090982;28;20454;-61
2023/10/02 07:28:22;;;;;;;42.73;20.80;;;27.60;55.10;;;;;;5090865;28;20502;-61
2023/10/02 07:30:50;;;;;;;42.00;18.80;;;28.10;55.10;;;;;;5092438;28;20410;-61
2023/10/02 07:33:19;;;;;;;44.67;21.97;;;28.60;52.10;;;;;;5095900;28;20402;-60
2023/10/02 07:35:52;;;;;;;51.57;23.20;;;29.10;51.40;;;;;;5095353;28;20430;-61
2023/10/02 07:38:22;;;;;;;45.87;21.13;;;29.70;50.70;;;;;;5094817;28;20422;-61
2023/10/02 07:40:49;;;;;;;52.93;21.37;;;30.40;49.60;;;;;;5094979;28;20402;-61
2023/10/02 07:43:21;;;;;;;50.30;21.00;;;30.90;47.40;;;;;;5094827;28;20414;-61
2023/10/02 07:46:14;;;;;;;41.77;17.17;;;31.10;47.10;;;;;;5094598;28;20450;-61
2023/10/02 07:48:41;;;;;;;51.07;23.17;;;31.20;46.20;;;;;;5094894;28;20460;-61
2023/10/02 07:51:09;;;;;;;48.13;24.67;;;31.10;45.30;;;;;;5094670;28;20444;-61
2023/10/02 07:53:40;;;;;;;43.57;20.20;;;31.10;45.40;;;;;;5094633;28;20941;-61
2023/10/02 07:56:11;;;;;;;45.90;23.87;;;31.20;45.80;;;;;;5094144;28;20452;-61
2023/10/02 07:58:41;;;;;;;37.67;21.47;;;31.80;45.00;;;;;;5094517;28;20442;-61
2023/10/02 08:01:13;;;;;;;43.13;19.43;;;32.50;42.90;;;;;;5094624;28;20418;-61
2023/10/02 08:03:49;;;;;;;51.50;22.27;;;33.20;42.80;;;;;;5094868;28;20744;-61
2023/10/02 08:06:21;;;;;;;45.43;20.40;;;33.70;42.70;;;;;;5094049;28;20502;-61
2023/10/02 08:11:39;;;;;;;45.40;19.97;;;34.60;39.10;;;;;;5094621;28;20406;-61
2023/10/02 08:14:06;;;;;;;54.23;22.80;;;34.90;37.60;;;;;;5094281;28;20788;-61
2023/10/02 08:16:58;;;;;;;42.30;20.47;;;35.10;37.10;;;;;;5093706;28;20433;-60
2023/10/02 08:19:20;;;;;;;40.97;18.47;;;35.40;36.80;;;;;;5097409;22;20499;-61
2023/10/02 08:21:47;;;;;;;52.80;22.00;;;35.70;37.10;;;;;;5053609;28;20412;-61
2023/10/02 08:24:13;;;;;;;47.47;21.37;;;36.10;36.90;;;;;;5053347;28;20487;-61
2023/10/02 08:26:43;;;;;;;47.50;20.30;;;36.60;34.30;;;;;;5053071;28;20480;-61
2023/10/02 08:29:18;;;;;;;44.07;20.93;;;37.10;34.20;;;;;;5053494;28;20512;-61
2023/10/02 08:31:46;;;;;;;43.10;20.20;;;37.40;33.50;;;;;;5053403;28;20916;-61
2023/10/02 08:34:13;;;;;;;42.70;19.50;;;37.60;33.40;;;;;;5053642;28;20440;-61
2023/10/02 08:36:42;;;;;;;47.40;20.53;;;37.80;33.40;;;;;;5053127;28;20413;-61
2023/10/02 08:39:08;;;;;;;42.00;21.13;;;38.00;32.40;;;;;;5053504;28;20428;-62
2023/10/02 08:41:46;;;;;;;41.77;20.43;;;38.20;32.00;;;;;;5053094;28;20409;-60
2023/10/02 08:44:13;;;;;;;38.40;18.70;;;38.40;31.20;;;;;;5053631;28;20408;-61
2023/10/02 08:46:42;;;;;;;37.77;21.00;;;38.40;31.30;;;;;;5053126;28;20502;-61
2023/10/02 08:49:10;;;;;;;33.47;17.60;;;38.50;32.60;;;;;;5053389;28;20425;-61
2023/10/02 08:51:38;;;;;;;38.10;16.90;;;38.60;33.20;;;;;;5053335;28;20411;-61
2023/10/02 08:54:05;;;;;;;34.83;17.80;;;38.80;31.90;;;;;;5053228;28;20824;-62
2023/10/02 08:56:43;;;;;;;46.17;18.80;;;39.00;32.70;;;;;;5052895;28;20404;-62
2023/10/02 08:59:26;;;;;;;37.27;18.93;;;39.20;31.60;;;;;;5052879;28;20515;-62
2023/10/02 09:02:16;;;;;;;37.60;17.23;;;39.40;31.00;;;;;;5053220;28;20792;-62
2023/10/02 09:05:09;;;;;;;30.87;18.47;;;39.50;30.50;;;;;;5052621;28;20396;-62
2023/10/02 09:10:25;;;;;;;36.20;19.93;;;39.80;30.80;;;;;;5052871;28;20793;-62
2023/10/02 09:13:09;;;;;;;39.83;18.27;;;39.80;30.00;;;;;;5051578;28;20393;-61
2023/10/02 09:15:35;;;;;;;36.87;17.43;;;39.80;30.10;;;;;;5051656;28;20895;-61
2023/10/02 09:18:19;;;;;;;34.73;19.83;;;39.80;30.00;;;;;;5051630;28;20500;-60
2023/10/02 09:21:04;;;;;;;43.47;19.17;;;39.90;30.60;;;;;;5051614;28;20186;-61
2023/10/02 09:23:30;;;;;;;38.10;18.10;;;39.90;30.00;;;;;;5051591;28;20499;-61
2023/10/02 09:26:21;;;;;;;39.70;18.50;;;39.80;29.70;;;;;;5051665;28;20487;-61
2023/10/02 09:29:00;;;;;;;34.93;17.60;;;39.80;30.10;;;;;;5052277;28;20428;-62
2023/10/02 09:31:30;;;;;;;39.17;17.40;;;39.70;30.10;;;;;;5052146;28;20484;-61
2023/10/02 09:33:56;;;;;;;31.03;14.47;;;39.60;30.40;;;;;;5052509;28;20401;-62
2023/10/02 09:36:35;;;;;;;33.60;15.20;;;39.40;31.10;;;;;;5051774;28;20408;-61
2023/10/02 09:39:31;;;;;;;35.40;17.30;;;39.20;30.00;;;;;;5052408;28;20435;-62
2023/10/02 09:42:07;;;;;;;29.90;13.50;;;38.00;29.50;;;;;;5052115;28;20413;-62
2023/10/02 09:44:42;;;;;;;27.90;14.23;;;37.00;30.00;;;;;;5051994;28;20404;-61
2023/10/02 09:47:08;;;;;;;41.73;15.50;;;35.90;30.00;;;;;;5051874;28;20456;-61
2023/10/02 09:49:39;;;;;;;27.00;13.77;;;35.10;31.30;;;;;;5052161;28;20472;-61
2023/10/02 09:52:15;;;;;;;27.30;15.03;;;34.50;31.10;;;;;;5034435;28;20851;-61
2023/10/02 09:55:09;;;;;;;34.30;18.17;;;34.60;31.50;;;;;;5051510;28;20728;-61
2023/10/02 09:57:39;;;;;;;33.60;14.03;;;35.00;31.00;;;;;;5051878;28;20400;-61
2023/10/02 10:00:34;;;;;;;28.70;12.87;;;35.00;32.10;;;;;;5052034;28;20429;-62
2023/10/02 10:03:25;;;;;;;31.87;13.90;;;35.20;32.30;;;;;;5051595;28;20507;-61
2023/10/02 10:06:15;;;;;;;22.73;11.83;;;35.30;31.70;;;;;;5051955;28;20535;-61
2023/10/02 10:12:21;;;;;;;33.70;13.87;;;34.90;31.60;;;;;;5050709;28;20404;-61
2023/10/02 10:14:38;;;;;;;31.63;13.13;;;34.60;33.10;;;;;;5051616;28;20789;-60
2023/10/02 10:17:13;;;;;;;24.67;12.90;;;34.40;32.70;;;;;;5051467;28;20412;-60
2023/10/02 10:20:18;;;;;;;24.77;14.70;;;34.00;32.90;;;;;;5051635;28;20829;-61
2023/10/02 10:22:56;;;;;;;30.33;12.57;;;33.70;37.20;;;;;;5048450;28;20428;-60
2023/10/02 10:27:54;;;;;;;24.40;12.43;;;33.10;41.00;;;;;;5051181;28;20401;-61
2023/10/02 10:35:48;;;;;;;30.60;14.23;;;31.50;40.60;;;;;;5051373;28;20403;-60
2023/10/02 10:38:28;;;;;;;26.27;12.17;;;30.80;39.30;;;;;;5051073;28;20442;-61
2023/10/02 10:40:55;;;;;;;29.37;14.97;;;30.10;44.10;;;;;;5051437;28;20396;-60
2023/10/02 10:43:43;;;;;;;25.60;14.17;;;29.70;46.90;;;;;;5051332;28;20926;-61
2023/10/02 10:46:24;;;;;;;26.07;12.20;;;29.30;48.30;;;;;;5050928;28;21030;-61
2023/10/02 10:48:59;;;;;;;24.87;12.90;;;28.80;45.30;;;;;;5051194;28;20451;-60
2023/10/02 10:51:33;;;;;;;23.77;10.97;;;28.60;46.30;;;;;;5051494;28;20451;-60
2023/10/02 10:54:30;;;;;;;30.77;13.40;;;28.30;45.00;;;;;;5051343;28;20396;-61
2023/10/02 10:57:19;;;;;;;25.20;11.67;;;28.40;46.90;;;;;;5050020;28;20519;-61
2023/10/02 10:59:45;;;;;;;30.87;14.57;;;28.30;46.60;;;;;;5051188;28;20425;-61
2023/10/02 11:02:17;;;;;;;25.60;16.00;;;28.30;45.80;;;;;;5051223;28;20452;-61
2023/10/02 11:04:50;;;;;;;24.47;13.90;;;28.40;46.10;;;;;;5052369;28;20409;-61
2023/10/02 11:07:19;;;;;;;25.40;12.03;;;28.10;49.10;;;;;;5054909;28;20456;-60
2023/10/02 11:12:55;;;;;;;25.23;12.53;;;27.90;45.50;;;;;;5055183;28;20403;-60
2023/10/02 11:18:19;;;;;;;29.53;12.10;;;28.00;46.10;;;;;;5037099;28;20499;-60
2023/10/02 11:20:57;;;;;;;37.70;14.17;;;28.20;44.80;;;;;;5055067;28;20943;-60
2023/10/02 11:23:43;;;;;;;25.30;12.47;;;28.20;43.90;;;;;;5054994;28;20412;-60
2023/10/02 11:26:21;;;;;;;33.03;14.63;;;27.90;48.40;;;;;;5054410;28;20444;-60
2023/10/02 11:28:50;;;;;;;34.57;17.20;;;27.70;42.20;;;;;;5055001;28;20428;-60
2023/10/02 11:31:30;;;;;;;36.73;16.00;;;27.70;48.20;;;;;;5054860;28;20405;-61
2023/10/02 11:34:03;;;;;;;35.17;15.37;;;27.70;48.40;;;;;;5054813;28;20401;-60
2023/10/02 11:36:33;;;;;;;36.40;13.83;;;27.50;52.40;;;;;;5054386;28;20413;-60
2023/10/02 11:39:08;;;;;;;36.17;16.07;;;27.20;52.70;;;;;;5054778;28;20495;-60
2023/10/02 11:41:34;;;;;;;36.47;14.23;;;27.10;52.50;;;;;;5054789;28;20499;-60
2023/10/02 11:44:00;;;;;;;29.03;14.33;;;27.10;52.40;;;;;;5054655;28;20436;-61
2023/10/02 11:46:26;;;;;;;40.10;18.17;;;26.90;54.20;;;;;;5054089;28;20491;-61
2023/10/02 11:48:54;;;;;;;31.63;14.70;;;26.70;55.30;;;;;;5054414;28;20216;-61
2023/10/02 11:51:19;;;;;;;29.20;13.03;;;26.50;54.10;;;;;;5054665;28;20206;-61
2023/10/02 11:53:45;;;;;;;29.77;14.10;;;26.30;50.10;;;;;;5054430;28;20448;-60
2023/10/02 11:56:11;;;;;;;29.03;13.27;;;26.40;54.10;;;;;;5054046;28;20178;-60
2023/10/02 11:58:36;;;;;;;30.27;14.33;;;26.20;54.60;;;;;;5054301;28;20206;-61
2023/10/02 12:01:06;;;;;;;26.00;14.27;;;26.20;54.00;;;;;;5054335;28;20171;-61
2023/10/02 12:03:36;;;;;;;32.73;11.83;;;26.00;55.80;;;;;;5054143;28;20264;-61
2023/10/02 12:06:10;;;;;;;28.80;12.80;;;25.80;55.90;;;;;;5053565;28;20484;-61
2023/10/02 12:08:38;;;;;;;25.33;11.30;;;25.80;57.20;;;;;;5053504;28;20820;-61
2023/10/02 12:11:04;;;;;;;34.10;13.83;;;25.80;57.40;;;;;;5054148;28;20822;-60
2023/10/02 12:13:29;;;;;;;29.50;12.30;;;25.90;55.70;;;;;;5054031;28;20411;-61
2023/10/02 12:15:56;;;;;;;31.57;14.00;;;25.90;56.90;;;;;;5053367;28;20204;-60
2023/10/02 12:18:22;;;;;;;26.63;14.00;;;25.90;55.60;;;;;;5053380;28;20261;-60
2023/10/02 12:20:49;;;;;;;33.30;13.57;;;25.80;54.80;;;;;;5054120;28;20421;-60
2023/10/02 12:23:16;;;;;;;33.60;14.00;;;25.70;55.50;;;;;;5053859;28;20404;-61
2023/10/02 12:25:50;;;;;;;28.00;14.47;;;25.70;55.80;;;;;;5053560;28;20445;-61
2023/10/02 12:28:16;;;;;;;34.93;14.67;;;25.80;55.70;;;;;;5053539;28;20408;-61
2023/10/02 12:30:41;;;;;;;25.67;13.50;;;25.60;54.10;;;;;;5053852;28;20546;-60
2023/10/02 12:33:09;;;;;;;28.00;12.80;;;25.40;55.40;;;;;;5052481;28;20709;-60
2023/10/02 12:35:37;;;;;;;25.97;11.93;;;25.30;54.80;;;;;;5053696;28;20189;-60
2023/10/02 12:38:03;;;;;;;22.97;13.57;;;25.40;52.70;;;;;;5053226;28;20444;-60
2023/10/02 12:40:34;;;;;;;23.17;13.17;;;25.40;54.30;;;;;;5053466;28;20435;-60
2023/10/02 12:43:03;;;;;;;29.37;12.77;;;25.30;54.20;;;;;;5053408;28;20395;-60
2023/10/02 12:45:35;;;;;;;29.77;10.90;;;25.20;51.40;;;;;;5053141;28;20456;-60
2023/10/02 12:48:07;;;;;;;28.93;11.53;;;25.00;56.00;;;;;;5053138;28;20408;-60
2023/10/02 12:50:39;;;;;;;22.23;9.97;;;24.70;52.00;;;;;;5053407;28;20520;-61
2023/10/02 12:53:05;;;;;;;29.50;9.60;;;24.70;49.20;;;;;;5053130;28;20408;-62
2023/10/02 12:55:34;;;;;;;16.90;7.63;;;24.70;54.70;;;;;;5052536;28;20419;-60
2023/10/02 12:58:01;;;;;;;18.93;9.73;;;24.60;52.60;;;;;;5051876;28;20418;-60
2023/10/02 13:00:27;;;;;;;19.43;9.47;;;24.50;57.10;;;;;;5051920;28;20523;-60
2023/10/02 13:02:53;;;;;;;16.40;6.70;;;24.30;53.40;;;;;;5052240;28;20500;-60
2023/10/02 13:05:19;;;;;;;11.00;6.43;;;24.30;55.30;;;;;;5052003;28;20776;-60
2023/10/02 13:07:47;;;;;;;18.63;6.70;;;24.20;55.00;;;;;;5046185;28;20270;-60
2023/10/02 13:10:14;;;;;;;23.47;8.60;;;24.10;55.10;;;;;;5032131;28;20412;-60
2023/10/02 13:12:41;;;;;;;20.90;7.53;;;23.80;57.90;;;;;;5033185;28;20413;-59
2023/10/02 13:15:07;;;;;;;26.03;8.97;;;23.60;57.10;;;;;;5032877;28;20399;-60
2023/10/02 13:17:34;;;;;;;14.50;7.60;;;23.50;55.60;;;;;;5032655;28;20425;-61
2023/10/02 13:20:01;;;;;;;14.33;7.77;;;23.40;58.50;;;;;;5032681;28;20419;-60
2023/10/02 13:22:26;;;;;;;17.23;8.90;;;23.10;58.20;;;;;;5032821;28;20450;-60
2023/10/02 13:24:52;;;;;;;16.20;8.00;;;23.10;57.70;;;;;;5032656;28;20911;-61
2023/10/02 13:27:18;;;;;;;17.73;6.87;;;23.00;59.50;;;;;;5032184;28;20213;-59
2023/10/02 13:29:44;;;;;;;11.73;6.07;;;23.00;58.60;;;;;;5031781;28;20186;-61
2023/10/02 13:32:10;;;;;;;18.23;8.57;;;22.90;59.10;;;;;;5032645;28;20175;-60
2023/10/02 13:34:36;;;;;;;16.90;8.13;;;22.70;59.70;;;;;;5032582;28;20413;-61
2023/10/02 13:37:02;;;;;;;15.60;7.23;;;22.50;58.80;;;;;;5032260;28;20608;-60
2023/10/02 13:39:29;;;;;;;31.00;8.07;;;22.40;57.90;;;;;;5032229;28;20440;-60
2023/10/02 13:41:54;;;;;;;15.03;6.40;;;22.40;61.30;;;;;;5032570;28;20417;-60
2023/10/02 13:44:21;;;;;;;13.13;6.10;;;22.30;61.60;;;;;;5032418;28;20405;-59
2023/10/02 13:46:46;;;;;;;16.60;5.50;;;22.30;55.60;;;;;;5031892;28;20215;-60
2023/10/02 13:49:14;;;;;;;11.30;6.47;;;22.30;58.40;;;;;;5032248;28;20411;-59
2023/10/02 13:51:41;;;;;;;16.97;6.67;;;22.30;60.00;;;;;;5032271;28;20720;-60